Time;durP1;ratioP1;P1;durP2;ratioP2;P2;SDS_P1;SDS_P2;PMS_P1;PMS_P2;Temp;Humidity;BMP_temperature;BMP_pressure;BME280_temperature;BME280_humidity;BME280_pressure;Samples;Min_cycle;Max_cycle;Signal;HPM_P1;HPM_P2
2022/09/27 00:00:30;;;;;;;3.77;2.67;;;14.60;1.00;;;;;;4986329;28;20272;-60
2022/09/27 00:02:55;;;;;;;4.33;2.57;;;14.60;1.00;;;;;;4988443;28;20210;-60
2022/09/27 00:05:21;;;;;;;5.20;2.93;;;14.70;1.00;;;;;;4989707;28;20221;-60
2022/09/27 00:07:46;;;;;;;4.50;3.00;;;14.70;1.00;;;;;;4987034;28;20186;-60
2022/09/27 00:10:12;;;;;;;2.33;2.13;;;14.60;1.00;;;;;;4983216;28;20326;-61
2022/09/27 00:12:38;;;;;;;3.93;2.20;;;14.70;1.00;;;;;;4989135;28;20205;-61
2022/09/27 00:15:05;;;;;;;2.57;2.37;;;14.70;1.00;;;;;;4989771;28;20795;-61
2022/09/27 00:17:31;;;;;;;2.70;2.30;;;14.70;1.00;;;;;;4986307;28;20440;-61
2022/09/27 00:19:59;;;;;;;2.73;2.20;;;14.70;1.00;;;;;;4986102;28;20465;-60
2022/09/27 00:22:25;;;;;;;4.80;2.23;;;14.70;1.00;;;;;;4989561;28;20186;-61
2022/09/27 00:24:51;;;;;;;6.00;2.10;;;14.70;1.00;;;;;;4989084;28;20473;-60
2022/09/27 00:27:18;;;;;;;2.33;2.07;;;14.70;1.00;;;;;;4990443;28;20241;-60
2022/09/27 00:29:44;;;;;;;3.50;2.10;;;14.70;1.00;;;;;;4990143;28;20182;-60
2022/09/27 00:32:11;;;;;;;3.73;2.27;;;14.60;1.00;;;;;;4989105;28;20457;-61
2022/09/27 00:34:36;;;;;;;2.87;1.97;;;14.70;1.00;;;;;;4985234;28;20424;-60
2022/09/27 00:37:02;;;;;;;2.93;2.63;;;14.60;1.00;;;;;;4983893;28;20938;-61
2022/09/27 00:39:28;;;;;;;3.53;2.33;;;14.70;1.00;;;;;;4983054;28;20196;-60
2022/09/27 00:41:53;;;;;;;2.50;2.30;;;14.60;1.00;;;;;;4988199;28;20197;-62
2022/09/27 00:44:28;;;;;;;3.87;2.17;;;14.50;1.00;;;;;;4988361;28;20225;-61
2022/09/27 00:47:23;;;;;;;2.77;2.27;;;14.60;1.00;;;;;;4989056;28;20185;-60
2022/09/27 00:50:01;;;;;;;2.27;2.07;;;14.60;1.00;;;;;;4988285;28;20452;-61
2022/09/27 00:52:34;;;;;;;1.90;1.80;;;14.60;1.00;;;;;;4984735;28;20465;-60
2022/09/27 00:55:06;;;;;;;4.13;2.20;;;14.60;1.00;;;;;;4984947;28;20531;-60
2022/09/27 00:57:32;;;;;;;3.47;2.10;;;14.60;1.00;;;;;;4984274;28;20460;-61
2022/09/27 01:00:05;;;;;;;2.70;1.90;;;14.60;1.00;;;;;;4989844;28;20467;-60
2022/09/27 01:02:32;;;;;;;4.73;2.03;;;14.70;1.00;;;;;;4987177;28;20465;-61
2022/09/27 01:04:58;;;;;;;2.30;1.97;;;14.70;1.00;;;;;;4989487;28;20516;-60
2022/09/27 01:07:24;;;;;;;3.50;1.90;;;14.60;1.00;;;;;;4988364;28;20467;-61
2022/09/27 01:09:50;;;;;;;3.60;2.10;;;14.60;1.00;;;;;;4984260;28;20453;-60
2022/09/27 01:12:42;;;;;;;1.70;1.60;;;14.70;1.00;;;;;;4990304;28;20196;-61
2022/09/27 01:15:27;;;;;;;2.60;1.97;;;14.70;1.00;;;;;;4985672;28;20453;-61
2022/09/27 01:18:10;;;;;;;4.27;2.50;;;14.70;1.00;;;;;;4987526;28;20450;-61
2022/09/27 01:20:50;;;;;;;2.97;2.77;;;14.70;1.00;;;;;;4989583;28;20438;-59
2022/09/27 01:23:22;;;;;;;2.73;2.40;;;14.70;1.00;;;;;;4989514;28;20451;-62
2022/09/27 01:26:23;;;;;;;5.43;3.07;;;14.60;1.00;;;;;;4987444;28;20469;-60
2022/09/27 01:29:08;;;;;;;3.07;2.87;;;14.60;1.00;;;;;;4985786;28;20592;-61
2022/09/27 01:31:59;;;;;;;3.60;2.80;;;14.60;1.00;;;;;;4987338;28;20440;-60
2022/09/27 01:34:44;;;;;;;4.43;2.90;;;14.60;1.00;;;;;;4988812;28;20457;-60
2022/09/27 01:37:36;;;;;;;2.80;2.60;;;14.60;1.00;;;;;;4987900;28;20449;-60
2022/09/27 01:40:23;;;;;;;3.00;2.80;;;14.60;1.00;;;;;;4991382;28;20457;-60
2022/09/27 01:42:59;;;;;;;2.63;2.40;;;14.60;1.00;;;;;;4968882;28;20457;-61
2022/09/27 01:45:37;;;;;;;2.80;2.60;;;14.50;1.00;;;;;;4988516;28;20477;-61
2022/09/27 01:48:25;;;;;;;4.30;2.60;;;14.50;1.00;;;;;;4986805;28;20535;-62
2022/09/27 01:50:57;;;;;;;2.50;2.30;;;14.50;1.00;;;;;;4987194;28;20541;-59
2022/09/27 01:53:32;;;;;;;2.73;2.50;;;14.60;1.00;;;;;;4989837;28;20922;-62
2022/09/27 01:56:01;;;;;;;2.47;2.13;;;14.60;1.00;;;;;;4988520;28;20449;-61
2022/09/27 01:58:50;;;;;;;1.80;1.70;;;14.60;1.00;;;;;;4989384;28;20549;-61
2022/09/27 02:01:18;;;;;;;3.87;2.10;;;14.50;1.00;;;;;;4975200;28;20445;-60
2022/09/27 02:03:48;;;;;;;2.53;2.33;;;14.50;1.00;;;;;;4986592;28;20489;-60
2022/09/27 02:06:19;;;;;;;2.43;2.00;;;14.50;1.00;;;;;;4993468;28;20416;-60
2022/09/27 02:09:19;;;;;;;2.30;2.10;;;14.60;1.00;;;;;;4986467;28;20437;-61
2022/09/27 02:11:54;;;;;;;2.50;2.00;;;14.50;1.00;;;;;;4965071;28;20449;-62
2022/09/27 02:14:40;;;;;;;2.73;2.20;;;14.60;1.00;;;;;;4984768;28;20456;-62
2022/09/27 02:17:30;;;;;;;3.20;1.90;;;14.60;1.00;;;;;;4988878;28;20454;-61
2022/09/27 02:20:14;;;;;;;2.10;1.90;;;14.50;1.00;;;;;;4993162;28;20425;-60
2022/09/27 02:22:49;;;;;;;3.60;2.37;;;14.50;1.00;;;;;;4991391;28;20974;-61
2022/09/27 02:25:35;;;;;;;3.17;1.60;;;14.50;1.00;;;;;;4983621;28;20504;-60
2022/09/27 02:28:20;;;;;;;2.17;1.80;;;14.50;1.00;;;;;;4988567;28;20452;-61
2022/09/27 02:30:46;;;;;;;1.90;1.80;;;14.60;1.00;;;;;;4992626;28;20524;-60
2022/09/27 02:33:11;;;;;;;2.20;2.00;;;14.50;1.00;;;;;;4992183;28;20449;-61
2022/09/27 02:35:37;;;;;;;2.80;2.60;;;14.50;1.00;;;;;;4998345;28;20201;-61
2022/09/27 02:38:05;;;;;;;3.17;1.90;;;14.50;1.00;;;;;;4989050;28;20194;-62
2022/09/27 02:40:34;;;;;;;3.00;2.67;;;14.50;1.00;;;;;;4991195;28;20207;-60
2022/09/27 02:43:04;;;;;;;2.87;2.67;;;14.50;1.00;;;;;;4990123;28;20445;-60
2022/09/27 02:45:40;;;;;;;3.47;3.17;;;14.50;1.00;;;;;;4989719;28;20486;-61
2022/09/27 02:48:14;;;;;;;3.27;2.93;;;14.50;1.00;;;;;;4991874;28;20497;-60
2022/09/27 02:51:06;;;;;;;3.83;3.53;;;14.50;1.00;;;;;;4990290;28;20807;-61
2022/09/27 02:53:47;;;;;;;3.43;2.93;;;14.40;1.00;;;;;;4991515;28;20914;-60
2022/09/27 02:56:12;;;;;;;3.80;2.97;;;14.40;1.00;;;;;;4991016;28;20453;-61
2022/09/27 02:59:11;;;;;;;4.10;2.50;;;14.40;1.00;;;;;;4993902;28;20965;-60
2022/09/27 03:02:10;;;;;;;4.33;2.70;;;14.40;1.00;;;;;;4987624;28;20264;-61
2022/09/27 03:04:54;;;;;;;4.10;2.97;;;14.40;1.00;;;;;;4988868;28;20990;-59
2022/09/27 03:07:21;;;;;;;3.13;2.83;;;14.40;1.00;;;;;;4991886;28;20495;-59
2022/09/27 03:09:49;;;;;;;3.20;2.90;;;14.50;1.00;;;;;;4990414;28;20449;-60
2022/09/27 03:12:27;;;;;;;3.70;3.40;;;14.30;1.00;;;;;;4991831;28;20425;-61
2022/09/27 03:14:56;;;;;;;4.20;3.80;;;14.40;1.00;;;;;;4991257;28;20790;-61
2022/09/27 03:17:21;;;;;;;5.50;3.53;;;14.40;1.00;;;;;;4990285;28;20453;-60
2022/09/27 03:19:47;;;;;;;3.67;2.97;;;14.40;1.00;;;;;;4990541;28;20476;-60
2022/09/27 03:22:13;;;;;;;3.30;2.70;;;14.30;1.00;;;;;;4990405;28;20252;-60
2022/09/27 03:24:38;;;;;;;4.23;3.43;;;14.30;1.00;;;;;;4990412;28;20216;-60
2022/09/27 03:27:04;;;;;;;5.00;3.80;;;14.40;1.00;;;;;;4991560;28;20186;-59
2022/09/27 03:29:30;;;;;;;5.90;3.87;;;14.30;1.00;;;;;;4991566;28;20628;-60
2022/09/27 03:31:56;;;;;;;5.50;3.90;;;14.30;1.00;;;;;;4989581;28;20193;-61
2022/09/27 03:34:22;;;;;;;4.07;3.67;;;14.30;1.00;;;;;;4990103;28;20457;-60
2022/09/27 03:36:48;;;;;;;5.90;3.93;;;14.30;1.00;;;;;;4986365;28;20194;-60
2022/09/27 03:39:13;;;;;;;5.33;4.83;;;14.30;1.00;;;;;;4990030;28;20185;-61
2022/09/27 03:41:40;;;;;;;4.20;3.80;;;14.20;1.00;;;;;;4999442;28;20449;-61
2022/09/27 03:44:05;;;;;;;3.80;3.40;;;14.20;1.00;;;;;;4991071;28;20225;-62
2022/09/27 03:46:31;;;;;;;5.30;4.40;;;14.20;1.00;;;;;;4987689;28;20500;-60
2022/09/27 03:48:57;;;;;;;4.17;3.87;;;14.20;1.00;;;;;;4988977;28;20198;-58
2022/09/27 03:51:22;;;;;;;4.37;3.43;;;14.20;1.00;;;;;;4987163;28;20186;-61
2022/09/27 03:53:48;;;;;;;8.00;4.53;;;14.20;1.00;;;;;;4990340;28;20178;-60
2022/09/27 03:56:14;;;;;;;5.77;4.57;;;14.20;1.00;;;;;;4987369;28;20194;-61
2022/09/27 03:58:40;;;;;;;5.00;4.60;;;14.20;1.00;;;;;;4982997;28;20306;-61
2022/09/27 04:01:05;;;;;;;4.53;4.03;;;14.20;1.00;;;;;;4982858;28;20544;-62
2022/09/27 04:03:31;;;;;;;4.03;3.70;;;14.10;1.00;;;;;;4980961;28;20194;-61
2022/09/27 04:05:59;;;;;;;4.10;3.80;;;14.10;1.00;;;;;;4984304;28;20209;-59
2022/09/27 04:08:24;;;;;;;5.20;4.20;;;14.10;1.00;;;;;;4984868;28;20190;-62
2022/09/27 04:10:50;;;;;;;5.40;3.90;;;14.00;1.00;;;;;;4982907;28;20441;-61
2022/09/27 04:13:16;;;;;;;9.13;4.60;;;14.00;1.00;;;;;;4983520;28;20193;-60
2022/09/27 04:15:42;;;;;;;4.40;4.00;;;14.00;1.00;;;;;;4996627;28;20767;-61
2022/09/27 04:18:07;;;;;;;5.00;4.30;;;13.90;1.00;;;;;;4991177;28;20195;-59
2022/09/27 04:20:35;;;;;;;4.63;4.23;;;13.90;1.00;;;;;;4991047;28;20453;-61
2022/09/27 04:23:00;;;;;;;4.80;4.37;;;13.90;1.00;;;;;;4991366;28;20568;-59
2022/09/27 04:25:26;;;;;;;6.57;4.97;;;13.90;1.00;;;;;;4989121;28;20473;-61
2022/09/27 04:27:53;;;;;;;4.67;4.23;;;13.90;1.00;;;;;;4982762;28;20982;-61
2022/09/27 04:30:20;;;;;;;7.70;4.57;;;13.80;1.00;;;;;;4985047;28;20252;-60
2022/09/27 04:32:45;;;;;;;6.40;4.90;;;13.80;1.00;;;;;;4986050;28;20484;-61
2022/09/27 04:37:57;;;;;;;5.87;5.23;;;13.80;1.00;;;;;;4989136;28;20544;-60
2022/09/27 04:40:23;;;;;;;6.20;5.60;;;13.80;1.00;;;;;;4989830;28;20443;-62
2022/09/27 04:42:49;;;;;;;5.80;5.30;;;13.80;1.00;;;;;;4990425;28;20457;-63
2022/09/27 04:45:16;;;;;;;5.53;4.97;;;13.90;1.00;;;;;;4988795;28;20819;-61
2022/09/27 04:47:50;;;;;;;5.33;4.83;;;13.90;1.00;;;;;;4989868;28;20456;-62
2022/09/27 04:50:16;;;;;;;6.27;5.73;;;13.90;1.00;;;;;;4987348;28;20465;-62
2022/09/27 04:52:42;;;;;;;6.50;5.50;;;13.90;1.00;;;;;;4989946;28;20555;-61
2022/09/27 04:55:10;;;;;;;5.80;5.30;;;14.00;1.00;;;;;;4989689;28;20464;-61
2022/09/27 04:57:35;;;;;;;4.80;4.40;;;13.90;1.00;;;;;;4990202;28;22080;-62
2022/09/27 05:00:03;;;;;;;5.40;4.90;;;14.00;1.00;;;;;;4990410;28;20491;-61
2022/09/27 05:02:28;;;;;;;6.30;5.70;;;14.00;1.00;;;;;;4988360;28;20221;-62
2022/09/27 05:04:58;;;;;;;5.90;5.30;;;13.80;1.00;;;;;;4989201;28;20878;-61
2022/09/27 05:07:28;;;;;;;6.53;6.03;;;14.00;1.00;;;;;;4989202;28;20181;-61
2022/09/27 05:09:54;;;;;;;6.63;5.73;;;14.00;1.00;;;;;;4989850;28;20938;-60
2022/09/27 05:12:20;;;;;;;6.10;5.50;;;14.00;1.00;;;;;;4988086;28;20473;-60
2022/09/27 05:14:46;;;;;;;5.87;5.40;;;14.00;1.00;;;;;;4991753;28;20453;-60
2022/09/27 05:17:12;;;;;;;6.90;5.37;;;14.00;1.00;;;;;;4989432;28;20449;-61
2022/09/27 05:19:41;;;;;;;7.50;5.90;;;14.00;1.00;;;;;;4990241;28;20212;-62
2022/09/27 05:22:06;;;;;;;7.07;6.37;;;14.00;1.00;;;;;;4987459;28;20449;-61
2022/09/27 05:24:32;;;;;;;6.20;5.60;;;13.90;1.00;;;;;;4989239;28;20993;-61
2022/09/27 05:26:59;;;;;;;6.60;5.73;;;13.90;1.00;;;;;;4988386;28;20198;-60
2022/09/27 05:29:25;;;;;;;6.30;5.80;;;13.90;1.00;;;;;;4991935;28;20486;-61
2022/09/27 05:31:50;;;;;;;7.63;6.30;;;13.90;1.00;;;;;;4989910;28;20444;-61
2022/09/27 05:34:19;;;;;;;7.13;6.43;;;14.00;1.00;;;;;;4987936;28;20197;-60
2022/09/27 05:36:46;;;;;;;7.27;5.50;;;14.00;1.00;;;;;;4988523;28;20307;-61
2022/09/27 05:39:12;;;;;;;7.57;6.87;;;14.00;1.00;;;;;;4987517;28;20455;-60
2022/09/27 05:41:39;;;;;;;7.27;6.57;;;14.00;1.00;;;;;;4989389;28;20440;-61
2022/09/27 05:44:05;;;;;;;6.30;5.80;;;14.10;1.00;;;;;;4988850;28;20246;-61
2022/09/27 05:46:31;;;;;;;7.77;6.70;;;14.10;1.00;;;;;;4989256;28;20420;-60
2022/09/27 05:48:56;;;;;;;6.90;6.30;;;14.10;1.00;;;;;;4990003;28;20182;-61
2022/09/27 05:51:22;;;;;;;9.70;6.63;;;14.10;1.00;;;;;;4989751;28;20201;-61
2022/09/27 05:53:47;;;;;;;7.73;6.60;;;14.20;1.00;;;;;;4990918;28;20185;-61
2022/09/27 05:56:13;;;;;;;7.23;6.63;;;14.10;1.00;;;;;;5002026;28;20217;-61
2022/09/27 05:58:39;;;;;;;6.87;6.17;;;14.20;1.00;;;;;;5010905;28;20186;-61
2022/09/27 06:01:08;;;;;;;7.50;6.13;;;14.20;1.00;;;;;;4992015;28;20643;-59
2022/09/27 06:03:35;;;;;;;7.13;6.43;;;14.20;1.00;;;;;;4992924;28;20175;-61
2022/09/27 06:06:04;;;;;;;7.80;7.10;;;14.20;1.00;;;;;;4992236;28;20552;-61
2022/09/27 06:08:35;;;;;;;7.20;6.60;;;14.20;1.00;;;;;;4993179;28;20451;-61
2022/09/27 06:11:09;;;;;;;6.37;5.87;;;14.20;1.00;;;;;;4992488;28;20441;-60
2022/09/27 06:13:35;;;;;;;8.00;7.20;;;14.30;1.00;;;;;;4975770;28;20416;-60
2022/09/27 06:16:02;;;;;;;8.50;7.07;;;14.30;1.00;;;;;;4994767;28;20528;-62
2022/09/27 06:18:28;;;;;;;7.03;6.33;;;14.30;1.00;;;;;;4992879;28;20807;-61
2022/09/27 06:20:54;;;;;;;7.73;7.13;;;14.40;1.00;;;;;;5006444;28;20532;-60
2022/09/27 06:23:22;;;;;;;7.03;6.40;;;14.40;1.00;;;;;;4993495;28;20579;-61
2022/09/27 06:25:49;;;;;;;7.10;6.50;;;14.40;1.00;;;;;;5003915;28;20471;-60
2022/09/27 06:28:15;;;;;;;8.07;7.37;;;14.60;1.00;;;;;;4992444;28;20437;-62
2022/09/27 06:30:46;;;;;;;7.83;7.07;;;14.50;1.00;;;;;;5005773;28;20428;-61
2022/09/27 06:33:15;;;;;;;8.60;7.80;;;14.50;1.00;;;;;;5009266;28;20528;-61
2022/09/27 06:35:45;;;;;;;10.17;6.77;;;14.50;1.00;;;;;;4993460;28;20442;-61
2022/09/27 06:38:14;;;;;;;7.70;7.00;;;14.50;1.00;;;;;;5008080;28;20428;-62
2022/09/27 06:40:44;;;;;;;8.90;8.00;;;14.50;1.00;;;;;;4995087;28;20452;-60
2022/09/27 06:43:11;;;;;;;8.20;7.47;;;14.60;1.00;;;;;;5011346;28;20942;-60
2022/09/27 06:45:37;;;;;;;10.13;8.30;;;14.50;1.00;;;;;;5003814;28;20465;-60
2022/09/27 06:48:09;;;;;;;8.00;7.17;;;14.60;1.00;;;;;;5011436;28;20502;-61
2022/09/27 06:50:37;;;;;;;8.03;7.43;;;14.60;1.00;;;;;;4991641;28;21053;-60
2022/09/27 06:53:04;;;;;;;8.57;7.87;;;14.70;1.00;;;;;;4984030;28;20483;-59
2022/09/27 06:55:30;;;;;;;8.33;7.60;;;14.80;1.00;;;;;;5000005;28;20800;-60
2022/09/27 07:00:41;;;;;;;8.37;7.53;;;14.90;1.00;;;;;;4992430;28;20243;-60
2022/09/27 07:03:10;;;;;;;7.83;7.13;;;15.10;1.00;;;;;;4974904;28;20790;-60
2022/09/27 07:05:36;;;;;;;8.10;7.30;;;15.30;1.00;;;;;;4998595;28;20563;-60
2022/09/27 07:08:02;;;;;;;8.70;7.90;;;15.30;1.00;;;;;;4989410;28;20872;-60
2022/09/27 07:10:33;;;;;;;8.13;7.47;;;15.40;1.00;;;;;;4975856;28;20522;-60
2022/09/27 07:13:09;;;;;;;9.40;8.50;;;15.40;1.00;;;;;;5001179;28;20441;-60
2022/09/27 07:15:37;;;;;;;9.07;8.17;;;15.30;1.00;;;;;;4990931;28;20452;-60
2022/09/27 07:18:04;;;;;;;9.33;8.23;;;15.30;1.00;;;;;;4992327;28;20759;-61
2022/09/27 07:20:30;;;;;;;8.97;8.07;;;15.20;1.00;;;;;;4979407;28;20430;-60
2022/09/27 07:22:56;;;;;;;8.40;7.70;;;15.20;1.00;;;;;;4993788;28;20433;-60
2022/09/27 07:25:22;;;;;;;8.67;7.77;;;15.30;1.00;;;;;;4995714;28;20473;-60
2022/09/27 07:27:48;;;;;;;9.57;8.67;;;15.50;1.00;;;;;;4974203;28;20827;-60
2022/09/27 07:30:15;;;;;;;10.87;8.90;;;15.50;1.00;;;;;;4991725;28;20448;-61
2022/09/27 07:32:41;;;;;;;8.67;7.97;;;15.60;1.00;;;;;;4991299;28;20476;-60
2022/09/27 07:35:08;;;;;;;7.83;7.13;;;15.70;1.00;;;;;;5000532;28;20452;-60
2022/09/27 07:37:34;;;;;;;8.87;8.00;;;16.10;1.00;;;;;;4996223;28;20986;-60
2022/09/27 07:40:01;;;;;;;9.83;8.87;;;16.10;1.00;;;;;;4992927;28;20448;-60
2022/09/27 07:42:27;;;;;;;8.40;7.60;;;16.20;1.00;;;;;;4992251;28;20831;-59
2022/09/27 07:44:57;;;;;;;10.50;8.37;;;16.20;1.00;;;;;;4991775;28;20484;-63
2022/09/27 07:47:26;;;;;;;8.63;8.00;;;16.30;1.00;;;;;;4991567;28;20564;-61
2022/09/27 07:49:52;;;;;;;8.53;7.50;;;16.30;1.00;;;;;;4990644;28;20524;-61
2022/09/27 07:52:19;;;;;;;8.67;7.87;;;16.30;1.00;;;;;;4991286;28;20419;-61
2022/09/27 07:54:45;;;;;;;7.83;7.13;;;16.30;1.00;;;;;;4991799;28;20441;-60
2022/09/27 07:57:12;;;;;;;7.37;6.67;;;16.40;1.00;;;;;;4974044;28;20433;-61
2022/09/27 07:59:38;;;;;;;7.10;6.60;;;16.40;1.00;;;;;;4991539;28;20448;-61
2022/09/27 08:02:03;;;;;;;9.70;6.80;;;16.40;1.00;;;;;;4991848;28;20444;-60
2022/09/27 08:04:29;;;;;;;6.67;6.07;;;16.40;1.00;;;;;;4991030;28;20480;-61
2022/09/27 08:06:55;;;;;;;7.37;6.77;;;16.50;1.00;;;;;;4990973;28;20211;-61
2022/09/27 08:09:20;;;;;;;7.13;6.53;;;16.50;1.00;;;;;;4997927;28;20189;-60
2022/09/27 08:11:47;;;;;;;6.70;6.20;;;16.50;1.00;;;;;;5011343;28;20310;-60
2022/09/27 08:14:13;;;;;;;6.73;6.07;;;16.60;1.00;;;;;;5011150;28;20197;-61
2022/09/27 08:16:40;;;;;;;6.93;6.43;;;16.60;1.00;;;;;;5010797;28;20423;-61
2022/09/27 08:19:05;;;;;;;5.53;5.03;;;16.70;1.00;;;;;;5011040;28;20649;-60
2022/09/27 08:21:32;;;;;;;5.00;4.60;;;16.80;1.00;;;;;;5011149;28;20419;-61
2022/09/27 08:23:58;;;;;;;5.20;4.80;;;16.80;1.00;;;;;;5011265;28;20180;-61
2022/09/27 08:26:26;;;;;;;4.30;4.00;;;16.90;1.00;;;;;;5011119;28;20814;-61
2022/09/27 08:28:51;;;;;;;4.20;2.37;;;16.80;1.00;;;;;;5011046;28;20440;-62
2022/09/27 08:31:18;;;;;;;2.70;2.50;;;16.80;1.00;;;;;;5008814;28;20440;-61
2022/09/27 08:33:47;;;;;;;1.77;1.47;;;16.90;1.00;;;;;;5009966;28;20188;-59
2022/09/27 08:36:13;;;;;;;1.10;1.00;;;16.90;1.00;;;;;;4990304;28;20802;-60
2022/09/27 08:38:38;;;;;;;1.97;1.00;;;17.00;1.00;;;;;;4991141;28;20467;-60
2022/09/27 08:41:38;;;;;;;1.80;1.10;;;16.90;1.00;;;;;;4991501;28;20186;-60
2022/09/27 08:44:23;;;;;;;1.13;0.93;;;17.10;1.00;;;;;;4990893;28;20218;-61
2022/09/27 08:47:04;;;;;;;0.90;0.80;;;17.00;1.00;;;;;;4990996;28;20734;-61
2022/09/27 08:49:38;;;;;;;1.00;0.60;;;17.10;1.00;;;;;;4989943;28;20792;-62
2022/09/27 08:52:11;;;;;;;0.80;0.73;;;17.20;1.00;;;;;;4991248;28;20433;-60
2022/09/27 08:54:37;;;;;;;1.00;0.90;;;17.20;1.00;;;;;;4990875;28;20441;-61
2022/09/27 08:57:09;;;;;;;0.70;0.60;;;17.20;1.00;;;;;;4991166;28;20477;-61
2022/09/27 08:59:42;;;;;;;1.40;0.70;;;17.30;1.00;;;;;;4973141;28;20514;-60
2022/09/27 09:02:19;;;;;;;0.97;0.77;;;17.40;1.00;;;;;;4990955;28;20446;-60
2022/09/27 09:04:47;;;;;;;0.83;0.83;;;17.30;1.00;;;;;;4989671;28;20479;-63
2022/09/27 09:07:40;;;;;;;1.77;1.00;;;17.40;1.00;;;;;;4990962;28;20458;-61
2022/09/27 09:13:52;;;;;;;0.77;0.77;;;17.50;1.00;;;;;;4990097;28;20403;-60
2022/09/27 09:16:39;;;;;;;0.80;0.60;;;17.70;1.00;;;;;;4990948;28;20447;-62
2022/09/27 09:19:23;;;;;;;0.77;0.63;;;17.60;1.00;;;;;;4990447;28;20412;-61
2022/09/27 09:22:20;;;;;;;0.63;0.57;;;17.50;1.00;;;;;;4989795;28;20461;-61
2022/09/27 09:25:14;;;;;;;1.13;0.50;;;17.40;1.00;;;;;;4989951;28;20947;-60
2022/09/27 09:27:45;;;;;;;1.43;0.80;;;17.20;1.00;;;;;;4990331;28;20431;-60
2022/09/27 09:30:17;;;;;;;0.80;0.50;;;16.80;1.00;;;;;;4994471;28;20512;-60
2022/09/27 09:33:00;;;;;;;1.73;0.40;;;16.60;1.00;;;;;;4994244;28;20416;-61
2022/09/27 09:35:57;;;;;;;1.37;0.50;;;16.50;1.00;;;;;;4994118;28;20525;-61
2022/09/27 09:38:31;;;;;;;0.53;0.50;;;16.50;1.00;;;;;;4960139;28;20427;-60
2022/09/27 09:41:14;;;;;;;0.50;0.50;;;16.60;1.00;;;;;;4994121;28;20469;-60
2022/09/27 09:43:51;;;;;;;1.40;1.30;;;16.80;1.00;;;;;;4994202;28;20457;-60
2022/09/27 09:46:20;;;;;;;0.83;0.60;;;17.10;1.00;;;;;;4993825;28;20892;-61
2022/09/27 09:49:39;;;;;;;1.10;0.60;;;17.30;1.00;;;;;;4993432;28;20457;-60
2022/09/27 09:52:20;;;;;;;1.00;0.70;;;17.50;1.00;;;;;;4989098;28;21073;-61
2022/09/27 09:54:50;;;;;;;1.03;0.50;;;17.40;1.00;;;;;;4976646;28;20452;-60
2022/09/27 09:57:23;;;;;;;1.10;0.60;;;17.30;1.00;;;;;;4994047;28;20461;-60
2022/09/27 09:59:53;;;;;;;0.60;0.43;;;17.20;1.00;;;;;;4994006;28;20801;-60
2022/09/27 10:02:19;;;;;;;0.80;0.60;;;17.10;1.00;;;;;;5011344;28;20465;-61
2022/09/27 10:04:44;;;;;;;1.73;0.80;;;17.10;1.00;;;;;;5013604;28;20464;-63
2022/09/27 10:07:11;;;;;;;1.07;0.60;;;17.10;1.00;;;;;;5013274;28;20186;-61
2022/09/27 10:09:38;;;;;;;0.70;0.50;;;17.30;1.00;;;;;;5013375;28;20706;-60
2022/09/27 10:12:03;;;;;;;0.87;0.50;;;17.40;1.00;;;;;;4992854;28;21063;-61
2022/09/27 10:14:30;;;;;;;1.70;0.60;;;17.50;1.00;;;;;;4993906;28;20444;-60
2022/09/27 10:16:59;;;;;;;0.90;0.53;;;17.40;1.00;;;;;;4993307;28;20191;-60
2022/09/27 10:19:31;;;;;;;0.93;0.60;;;17.40;1.00;;;;;;4993551;28;20445;-60
2022/09/27 10:22:22;;;;;;;0.87;0.60;;;17.40;1.00;;;;;;4993618;28;20935;-60
2022/09/27 10:25:02;;;;;;;0.70;0.60;;;17.30;1.00;;;;;;4992967;28;20464;-61
2022/09/27 10:27:39;;;;;;;0.97;0.63;;;17.30;1.00;;;;;;4993273;28;20436;-62
2022/09/27 10:30:05;;;;;;;1.00;0.57;;;17.10;1.00;;;;;;4993622;28;20438;-61
2022/09/27 10:32:35;;;;;;;2.47;0.60;;;17.00;1.00;;;;;;4992930;28;20437;-60
2022/09/27 10:35:28;;;;;;;1.63;0.60;;;19.40;1.00;;;;;;4993448;28;20416;-61
2022/09/27 10:38:23;;;;;;;1.40;0.30;;;17.10;1.00;;;;;;4993623;28;20507;-60
2022/09/27 10:40:54;;;;;;;1.30;0.70;;;16.90;1.00;;;;;;4992859;28;20546;-60
2022/09/27 10:43:34;;;;;;;0.87;0.40;;;16.50;1.00;;;;;;4992735;28;20467;-61
2022/09/27 10:46:30;;;;;;;1.67;0.40;;;16.00;1.00;;;;;;4993134;28;20468;-61
2022/09/27 10:49:17;;;;;;;1.00;0.50;;;15.10;1.00;;;;;;4992600;28;20453;-61
2022/09/27 10:51:44;;;;;;;0.40;0.30;;;14.50;1.00;;;;;;4992771;28;20444;-61
2022/09/27 10:54:22;;;;;;;0.50;0.30;;;14.40;1.00;;;;;;4992997;28;20460;-60
2022/09/27 10:56:55;;;;;;;1.23;0.50;;;14.30;1.00;;;;;;4993218;28;20495;-60
2022/09/27 10:59:22;;;;;;;0.90;0.33;;;14.50;1.00;;;;;;4992601;28;20449;-60
2022/09/27 11:01:49;;;;;;;0.40;0.40;;;14.50;1.00;;;;;;4992886;28;20900;-61
2022/09/27 11:04:33;;;;;;;1.03;0.60;;;14.60;1.00;;;;;;4992636;28;20612;-61
2022/09/27 11:07:15;;;;;;;1.80;0.40;;;14.70;1.00;;;;;;4992554;28;20447;-61
2022/09/27 11:09:52;;;;;;;0.80;0.70;;;14.90;1.00;;;;;;4992530;28;20451;-60
2022/09/27 11:12:19;;;;;;;0.87;0.30;;;15.00;1.00;;;;;;4992943;28;20465;-62
2022/09/27 11:14:56;;;;;;;0.60;0.50;;;15.10;1.00;;;;;;4991835;28;20415;-60
2022/09/27 11:17:45;;;;;;;0.80;0.50;;;15.20;1.00;;;;;;4992831;28;20441;-60
2022/09/27 11:20:16;;;;;;;0.40;0.40;;;15.40;1.00;;;;;;4992312;28;20485;-60
2022/09/27 11:23:04;;;;;;;0.50;0.40;;;15.40;1.00;;;;;;4992424;28;20452;-62
2022/09/27 11:25:52;;;;;;;4.20;0.50;;;15.10;1.00;;;;;;5001677;28;20471;-59
2022/09/27 11:28:39;;;;;;;0.83;0.50;;;14.90;1.00;;;;;;5012221;28;20481;-59
2022/09/27 11:31:31;;;;;;;0.40;0.30;;;14.80;1.00;;;;;;5012279;28;20451;-59
2022/09/27 11:34:26;;;;;;;2.90;0.50;;;15.00;1.00;;;;;;4973775;28;20468;-59
2022/09/27 11:37:03;;;;;;;0.50;0.40;;;15.10;1.00;;;;;;5011624;28;20929;-59
2022/09/27 11:39:43;;;;;;;1.27;0.50;;;15.00;1.00;;;;;;5005525;28;20445;-59
2022/09/27 11:42:13;;;;;;;2.17;1.50;;;14.70;1.00;;;;;;4992463;28;20520;-60
2022/09/27 11:45:04;;;;;;;9.17;4.23;;;14.70;1.00;;;;;;4992061;28;20489;-59
2022/09/27 11:47:37;;;;;;;1.17;0.40;;;14.60;1.00;;;;;;4992201;28;20434;-59
2022/09/27 11:50:17;;;;;;;0.90;0.70;;;14.30;1.00;;;;;;4992116;28;20434;-59
2022/09/27 11:53:15;;;;;;;0.60;0.50;;;14.50;1.00;;;;;;4991144;28;20452;-59
2022/09/27 11:56:04;;;;;;;0.53;0.43;;;14.30;1.00;;;;;;4991654;28;20544;-59
2022/09/27 11:58:32;;;;;;;0.77;0.40;;;14.30;1.00;;;;;;4992097;28;20570;-59
2022/09/27 12:01:13;;;;;;;0.70;0.53;;;14.40;1.00;;;;;;4991814;28;20491;-60
2022/09/27 12:03:51;;;;;;;0.73;0.50;;;14.60;1.00;;;;;;4991625;28;20951;-59
2022/09/27 12:06:24;;;;;;;0.60;0.60;;;15.10;1.00;;;;;;4991715;28;20469;-59
2022/09/27 12:09:06;;;;;;;1.97;0.53;;;15.60;1.00;;;;;;4991490;28;20445;-59
2022/09/27 12:11:40;;;;;;;0.50;0.40;;;16.10;1.00;;;;;;4991297;28;20460;-60
2022/09/27 12:14:06;;;;;;;0.50;0.40;;;16.20;1.00;;;;;;4990327;28;20433;-60
2022/09/27 12:16:33;;;;;;;0.60;0.40;;;15.80;1.00;;;;;;4991148;28;20449;-60
2022/09/27 12:19:00;;;;;;;1.20;0.47;;;15.50;1.00;;;;;;4991328;28;20278;-60
2022/09/27 12:21:30;;;;;;;0.63;0.50;;;15.20;1.00;;;;;;4991391;28;20954;-59
2022/09/27 12:23:57;;;;;;;0.40;0.40;;;15.00;1.00;;;;;;4991687;28;20436;-59
2022/09/27 12:26:33;;;;;;;0.60;0.43;;;15.10;1.00;;;;;;4991391;28;20445;-59
2022/09/27 12:29:10;;;;;;;0.40;0.40;;;15.10;1.00;;;;;;4973126;28;20473;-59
2022/09/27 12:31:43;;;;;;;0.83;0.50;;;15.10;1.00;;;;;;4991477;28;20429;-60
2022/09/27 12:34:23;;;;;;;1.43;0.40;;;15.20;1.00;;;;;;4973555;28;20457;-59
2022/09/27 12:37:04;;;;;;;0.57;0.30;;;15.30;1.00;;;;;;4991104;28;20520;-60
2022/09/27 12:39:55;;;;;;;0.80;0.40;;;15.60;1.00;;;;;;4991526;28;20445;-60
2022/09/27 12:42:24;;;;;;;0.40;0.30;;;15.80;1.00;;;;;;4991086;28;20481;-60
2022/09/27 12:44:51;;;;;;;0.50;0.30;;;16.40;1.00;;;;;;4990626;28;20992;-59
2022/09/27 12:47:39;;;;;;;0.60;0.37;;;17.00;1.00;;;;;;4990890;28;20807;-59
2022/09/27 12:50:33;;;;;;;0.60;0.30;;;17.00;1.00;;;;;;4991126;28;20429;-59
2022/09/27 12:53:24;;;;;;;0.40;0.40;;;16.40;1.00;;;;;;5009587;28;20482;-59
2022/09/27 12:56:10;;;;;;;0.60;0.43;;;15.70;1.00;;;;;;4991108;28;20442;-60
2022/09/27 12:59:18;;;;;;;0.90;0.40;;;15.40;1.00;;;;;;4990880;28;20966;-60
2022/09/27 13:02:26;;;;;;;0.50;0.33;;;15.10;1.00;;;;;;4990599;28;20441;-60
2022/09/27 13:05:18;;;;;;;0.40;0.40;;;14.80;1.00;;;;;;4990550;28;20461;-59
2022/09/27 13:08:14;;;;;;;0.63;0.37;;;14.60;1.00;;;;;;4990495;28;20437;-59
2022/09/27 13:10:56;;;;;;;0.80;0.30;;;14.70;1.00;;;;;;4989963;28;20495;-59
2022/09/27 13:13:25;;;;;;;0.60;0.37;;;14.90;1.00;;;;;;4990504;28;20441;-59
2022/09/27 13:15:57;;;;;;;0.80;0.60;;;15.30;1.00;;;;;;4991060;28;21002;-60
2022/09/27 13:18:35;;;;;;;4.10;0.87;;;15.60;1.00;;;;;;4990483;28;20477;-59
2022/09/27 13:21:08;;;;;;;2.70;0.70;;;15.70;1.00;;;;;;4989088;28;20447;-59
2022/09/27 13:23:34;;;;;;;1.67;0.50;;;15.90;1.00;;;;;;4990416;28;20461;-59
2022/09/27 13:26:02;;;;;;;1.07;0.30;;;15.80;1.00;;;;;;4990056;28;20468;-60
2022/09/27 13:28:31;;;;;;;0.53;0.37;;;15.40;1.00;;;;;;4988984;28;20934;-58
2022/09/27 13:31:01;;;;;;;0.70;0.60;;;15.10;1.00;;;;;;4990383;28;20524;-59
2022/09/27 13:33:45;;;;;;;1.73;0.40;;;15.10;1.00;;;;;;4990034;28;20465;-58
2022/09/27 13:36:23;;;;;;;0.97;0.47;;;15.30;1.00;;;;;;4990232;28;20445;-59